Time;durP1;ratioP1;P1;durP2;ratioP2;P2;SDS_P1;SDS_P2;PMS_P1;PMS_P2;Temp;Humidity;BMP_temperature;BMP_pressure;BME280_temperature;BME280_humidity;BME280_pressure;Samples;Min_cycle;Max_cycle;Signal;HPM_P1;HPM_P2
2022/06/11 00:01:32;;;;;;;9.60;5.22;;;;;;;17.72;74.86;97936.97;1819222;79;20961;-61
2022/06/11 00:04:03;;;;;;;6.85;4.85;;;;;;;17.66;75.06;97934.23;1819178;79;20914;-61
2022/06/11 00:06:35;;;;;;;7.37;5.33;;;;;;;17.64;75.29;97939.20;1819490;79;20977;-62
2022/06/11 00:09:03;;;;;;;11.48;4.95;;;;;;;17.63;75.36;97933.58;1810473;79;20922;-60
2022/06/11 00:11:31;;;;;;;7.67;4.92;;;;;;;17.62;75.66;97936.61;1808528;79;20878;-63
2022/06/11 00:13:59;;;;;;;6.92;4.92;;;;;;;17.65;75.92;97934.03;1808584;79;20894;-63
2022/06/11 00:16:28;;;;;;;6.28;4.90;;;;;;;17.67;75.99;97929.62;1808557;79;20958;-60
2022/06/11 00:18:55;;;;;;;6.42;5.33;;;;;;;17.67;75.98;97926.35;1808528;79;20847;-59
2022/06/11 00:21:24;;;;;;;7.60;5.08;;;;;;;17.64;76.01;97928.37;1808580;79;20874;-63
2022/06/11 00:23:51;;;;;;;8.63;5.78;;;;;;;17.60;76.39;97932.89;1808671;79;21104;-59
2022/06/11 00:26:20;;;;;;;10.10;5.47;;;;;;;17.56;77.22;97927.93;1808558;79;20922;-63
2022/06/11 00:28:47;;;;;;;8.83;5.15;;;;;;;17.60;77.46;97926.13;1808553;79;20992;-62
2022/06/11 00:31:13;;;;;;;7.78;5.37;;;;;;;17.62;77.95;97925.22;1808924;79;21385;-63
2022/06/11 00:33:40;;;;;;;6.87;5.40;;;;;;;17.65;78.15;97925.11;1808653;79;20917;-63
2022/06/11 00:36:08;;;;;;;7.80;5.50;;;;;;;17.69;78.26;97927.36;1808545;79;21241;-62
2022/06/11 00:38:35;;;;;;;11.55;6.20;;;;;;;17.73;78.28;97922.88;1808593;79;20879;-60
2022/06/11 00:41:02;;;;;;;6.08;5.28;;;;;;;17.74;78.37;97925.79;1808674;79;20878;-62
2022/06/11 00:43:28;;;;;;;8.58;5.60;;;;;;;17.75;78.45;97927.38;1808807;79;20961;-61
2022/06/11 00:46:03;;;;;;;10.00;5.58;;;;;;;17.76;78.54;97929.73;1808812;79;20859;-63
2022/06/11 00:48:36;;;;;;;9.50;5.75;;;;;;;17.75;78.60;97936.30;1806028;79;21069;-61
2022/06/11 00:51:13;;;;;;;9.25;6.05;;;;;;;17.77;78.72;97938.66;1786046;79;20870;-62
2022/06/11 00:53:59;;;;;;;9.93;6.33;;;;;;;17.84;78.85;97938.09;1809119;79;20914;-63
2022/06/11 00:56:46;;;;;;;8.35;6.15;;;;;;;17.87;79.08;97945.00;1808722;79;20890;-59
2022/06/11 00:59:17;;;;;;;14.60;5.87;;;;;;;17.90;79.35;97939.47;1809026;79;20898;-59
2022/06/11 01:01:43;;;;;;;9.28;5.65;;;;;;;17.92;79.37;97934.50;1808840;79;21100;-59
2022/06/11 01:04:49;;;;;;;9.50;6.10;;;;;;;17.95;79.39;97935.95;1808686;79;21463;-60
2022/06/11 01:07:52;;;;;;;10.75;5.97;;;;;;;17.97;79.38;97935.05;1808845;79;20879;-61
2022/06/11 01:10:35;;;;;;;8.20;6.20;;;;;;;18.01;79.30;97929.75;1809009;79;20930;-62
2022/06/11 01:13:16;;;;;;;7.78;5.80;;;;;;;18.04;79.22;97932.55;1807995;79;20909;-63
2022/06/11 01:15:52;;;;;;;6.95;6.25;;;;;;;18.03;79.14;97923.42;1808733;79;21112;-58
2022/06/11 01:18:25;;;;;;;;;;;;;;;18.01;79.11;97927.04;1811498;79;20972;-62
2022/06/11 01:21:20;;;;;;;12.82;6.28;;;;;;;18.01;79.11;97927.04;1809094;79;20070;-59
2022/06/11 01:24:13;;;;;;;9.40;6.10;;;;;;;17.98;79.16;97931.22;1808524;79;21405;-58
2022/06/11 01:27:17;;;;;;;7.40;6.20;;;;;;;17.96;79.34;97932.69;1768853;79;20930;-58
2022/06/11 01:30:04;;;;;;;8.90;6.15;;;;;;;17.94;79.48;97941.16;1808213;79;21120;-58
2022/06/11 01:32:57;;;;;;;8.70;6.08;;;;;;;17.94;79.84;97948.50;1808736;79;21457;-61
2022/06/11 01:35:51;;;;;;;10.72;5.85;;;;;;;17.98;79.92;97948.03;1808573;79;20862;-59
2022/06/11 01:38:29;;;;;;;8.38;5.65;;;;;;;18.03;79.81;97946.45;1808643;79;20954;-62
2022/06/11 01:41:14;;;;;;;10.82;6.80;;;;;;;18.05;79.83;97939.57;1807971;79;21354;-58
2022/06/11 01:43:44;;;;;;;7.30;6.00;;;;;;;18.07;79.79;97941.93;1808963;79;21067;-58
2022/06/11 01:46:31;;;;;;;8.98;6.40;;;;;;;18.08;79.74;97944.31;1808630;79;20975;-62
2022/06/11 01:49:24;;;;;;;7.42;6.42;;;;;;;18.08;79.80;97959.78;1808939;79;20961;-59
2022/06/11 01:52:22;;;;;;;9.30;6.05;;;;;;;18.07;79.87;97954.12;1808376;79;21424;-61
2022/06/11 01:55:00;;;;;;;7.25;5.20;;;;;;;18.09;79.69;97950.54;1808058;79;20928;-61
2022/06/11 01:57:38;;;;;;;9.18;6.22;;;;;;;18.08;79.67;97944.31;1808347;79;21244;-63
2022/06/11 02:00:24;;;;;;;6.67;5.97;;;;;;;18.09;79.66;97953.25;1808701;79;20875;-60
2022/06/11 02:03:20;;;;;;;11.33;6.50;;;;;;;18.10;79.64;97958.87;1808686;79;20902;-60
2022/06/11 02:06:10;;;;;;;8.95;6.87;;;;;;;18.07;79.64;97958.98;1807400;79;20851;-62
2022/06/11 02:09:16;;;;;;;8.85;5.95;;;;;;;18.03;79.71;97958.65;1798353;79;21042;-58
2022/06/11 02:11:49;;;;;;;8.75;6.30;;;;;;;18.00;79.77;97974.22;1819384;79;21108;-60
2022/06/11 02:14:39;;;;;;;8.70;6.40;;;;;;;17.98;80.03;97972.42;1818982;79;20909;-60
2022/06/11 02:17:11;;;;;;;7.33;6.60;;;;;;;17.95;80.14;97971.73;1818842;78;20878;-61
2022/06/11 02:19:49;;;;;;;9.53;6.17;;;;;;;17.92;80.21;97975.14;1818487;78;21566;-62
2022/06/11 02:22:35;;;;;;;7.72;6.25;;;;;;;17.93;80.30;97975.34;1819358;79;20843;-60
2022/06/11 02:25:11;;;;;;;9.18;5.83;;;;;;;17.91;80.27;97978.41;1818844;78;21247;-59
2022/06/11 02:27:38;;;;;;;8.25;6.35;;;;;;;17.87;80.37;97984.28;1819507;79;21484;-59
2022/06/11 02:30:08;;;;;;;9.00;6.12;;;;;;;17.85;80.54;97985.19;1794495;79;20946;-61
2022/06/11 02:32:35;;;;;;;10.88;6.50;;;;;;;17.82;80.65;97982.34;1795230;79;20928;-62
2022/06/11 02:35:08;;;;;;;10.45;6.45;;;;;;;17.80;80.67;97979.19;1819344;79;20905;-58
2022/06/11 02:37:42;;;;;;;10.50;6.10;;;;;;;17.76;80.70;97982.56;1819353;79;21092;-59
2022/06/11 02:40:20;;;;;;;11.57;6.53;;;;;;;17.71;80.88;97989.55;1795466;79;21511;-62
2022/06/11 02:42:46;;;;;;;8.20;6.15;;;;;;;17.68;81.10;97989.45;1819348;79;20946;-60
2022/06/11 02:45:13;;;;;;;8.00;6.90;;;;;;;17.68;81.25;97994.30;1819177;79;20885;-62
2022/06/11 02:47:42;;;;;;;8.73;5.97;;;;;;;17.69;81.24;97991.81;1819349;79;20920;-58
2022/06/11 02:50:10;;;;;;;7.35;6.05;;;;;;;17.70;81.20;97992.61;1819201;79;21225;-60
2022/06/11 02:52:38;;;;;;;7.65;6.22;;;;;;;17.71;81.23;98001.73;1794393;79;20909;-63
2022/06/11 02:55:05;;;;;;;8.65;5.70;;;;;;;17.71;81.26;98000.39;1819199;79;20873;-58
2022/06/11 02:57:33;;;;;;;7.65;6.42;;;;;;;17.71;81.36;98003.09;1819385;79;21420;-59
2022/06/11 02:59:59;;;;;;;8.98;6.83;;;;;;;17.70;81.55;98002.89;1819320;79;20913;-60
2022/06/11 03:02:26;;;;;;;10.20;6.60;;;;;;;17.71;81.70;98005.80;1819202;79;21165;-58
2022/06/11 03:04:53;;;;;;;8.68;6.75;;;;;;;17.74;81.67;98001.08;1819330;79;21338;-60
2022/06/11 03:07:19;;;;;;;9.38;6.40;;;;;;;17.78;81.62;98000.41;1819205;79;20905;-62
2022/06/11 03:09:46;;;;;;;7.22;6.12;;;;;;;17.76;81.70;98004.23;1819215;79;20867;-62
2022/06/11 03:12:13;;;;;;;10.40;6.53;;;;;;;17.75;81.83;98004.58;1819338;79;20877;-61
2022/06/11 03:14:41;;;;;;;11.28;6.67;;;;;;;17.76;81.98;98002.88;1819712;79;21856;-59
2022/06/11 03:17:08;;;;;;;12.45;6.55;;;;;;;17.80;82.11;98003.02;1819123;79;20996;-61
2022/06/11 03:19:35;;;;;;;7.55;6.85;;;;;;;17.83;82.11;98009.69;1819174;79;20838;-59
2022/06/11 03:22:02;;;;;;;8.15;5.97;;;;;;;17.87;82.07;98008.67;1819541;79;21440;-59
2022/06/11 03:24:28;;;;;;;9.35;6.00;;;;;;;17.93;82.05;98005.16;1819197;79;20995;-61
2022/06/11 03:26:55;;;;;;;9.00;6.50;;;;;;;17.97;81.99;98011.50;1819268;79;22079;-62
2022/06/11 03:29:22;;;;;;;7.08;6.47;;;;;;;18.00;81.92;98011.61;1819129;79;20953;-59
2022/06/11 03:31:49;;;;;;;7.22;6.30;;;;;;;18.05;81.93;98010.59;1819132;79;20902;-58
2022/06/11 03:34:16;;;;;;;8.88;6.42;;;;;;;18.09;81.86;98008.81;1819145;79;20854;-62
2022/06/11 03:36:45;;;;;;;10.78;6.72;;;;;;;18.11;81.85;98011.97;1819173;79;21401;-62
2022/06/11 03:39:13;;;;;;;7.00;6.25;;;;;;;18.14;81.78;98010.71;1819286;79;21072;-64
2022/06/11 03:41:40;;;;;;;7.67;6.65;;;;;;;18.17;81.83;98007.89;1819181;79;20925;-61
2022/06/11 03:44:07;;;;;;;7.92;6.70;;;;;;;18.19;81.88;98001.56;1819174;79;20913;-59
2022/06/11 03:46:33;;;;;;;8.10;7.08;;;;;;;18.25;81.93;98011.06;1819147;79;20882;-58
2022/06/11 03:49:01;;;;;;;12.68;7.33;;;;;;;18.31;81.92;98009.70;1819304;79;20934;-62
2022/06/11 03:51:27;;;;;;;13.62;6.87;;;;;;;18.33;81.95;98011.50;1819149;79;21897;-62
2022/06/11 03:53:54;;;;;;;9.10;6.35;;;;;;;18.35;81.86;98011.38;1819095;79;20867;-60
2022/06/11 03:56:21;;;;;;;8.18;6.78;;;;;;;18.39;81.96;98015.58;1819170;79;20957;-59
2022/06/11 03:58:49;;;;;;;8.75;7.05;;;;;;;18.40;82.00;98014.43;1819349;79;21531;-61
2022/06/11 04:01:16;;;;;;;9.63;7.25;;;;;;;18.43;81.99;98021.89;1819256;79;20874;-59
2022/06/11 04:03:51;;;;;;;10.40;6.90;;;;;;;18.49;81.92;98023.27;1819251;79;21148;-57
2022/06/11 04:06:27;;;;;;;9.98;7.72;;;;;;;18.52;81.87;98028.02;1818976;79;21024;-59
2022/06/11 04:08:54;;;;;;;9.70;6.75;;;;;;;18.54;81.83;98023.59;1816160;79;20870;-62
2022/06/11 04:11:22;;;;;;;11.73;7.35;;;;;;;18.55;81.84;98031.97;1809060;79;20957;-62
2022/06/11 04:13:49;;;;;;;11.08;7.33;;;;;;;18.58;81.95;98031.30;1808874;79;21485;-61
2022/06/11 04:16:29;;;;;;;9.63;7.62;;;;;;;18.59;81.96;98035.02;1808674;79;21115;-62
2022/06/11 04:18:58;;;;;;;10.13;7.95;;;;;;;18.63;81.83;98039.97;1808780;79;20906;-60
2022/06/11 04:21:25;;;;;;;9.15;7.33;;;;;;;18.66;81.67;98042.02;1808501;79;20839;-63
2022/06/11 04:23:54;;;;;;;11.15;7.15;;;;;;;18.69;81.56;98038.62;1808746;79;21410;-58
2022/06/11 04:26:26;;;;;;;8.05;7.22;;;;;;;18.74;81.54;98042.47;1808580;79;20969;-59
2022/06/11 04:28:52;;;;;;;9.73;7.45;;;;;;;18.81;81.59;98034.54;1808584;79;21122;-60
2022/06/11 04:31:19;;;;;;;8.00;7.20;;;;;;;18.85;81.41;98040.05;1808596;79;20918;-59
2022/06/11 04:33:47;;;;;;;8.30;7.35;;;;;;;18.86;81.40;98033.51;1808545;79;21290;-60
2022/06/11 04:36:16;;;;;;;12.40;7.97;;;;;;;18.88;81.44;98034.75;1808546;79;20883;-61
2022/06/11 04:38:42;;;;;;;13.13;7.12;;;;;;;18.93;81.40;98035.08;1808887;79;21493;-60
2022/06/11 04:41:09;;;;;;;11.75;8.40;;;;;;;18.95;81.39;98034.96;1808522;79;21108;-59
2022/06/11 04:43:35;;;;;;;9.78;7.58;;;;;;;18.98;81.62;98047.82;1808596;79;20831;-61
2022/06/11 04:46:03;;;;;;;13.80;7.95;;;;;;;18.99;81.60;98042.63;1808713;79;21412;-60
2022/06/11 04:48:30;;;;;;;8.95;7.83;;;;;;;19.03;81.76;98036.73;1808685;79;20990;-63
2022/06/11 04:50:57;;;;;;;12.20;7.58;;;;;;;19.06;81.64;98036.61;1808586;79;20871;-59
2022/06/11 04:53:24;;;;;;;12.82;7.72;;;;;;;19.07;81.78;98039.00;1808656;79;21055;-60
2022/06/11 04:55:51;;;;;;;16.55;8.40;;;;;;;19.11;81.81;98037.17;1808595;79;20910;-62
2022/06/11 04:58:19;;;;;;;10.75;7.65;;;;;;;19.15;81.89;98044.05;1808648;79;21029;-61
2022/06/11 05:00:47;;;;;;;11.25;8.50;;;;;;;19.15;81.75;98037.25;1808591;79;20926;-62
2022/06/11 05:03:13;;;;;;;9.68;7.97;;;;;;;19.17;81.97;98042.36;1808667;79;20866;-61
2022/06/11 05:05:41;;;;;;;9.33;7.40;;;;;;;19.22;82.03;98036.69;1808541;79;22004;-61
2022/06/11 05:08:08;;;;;;;10.10;7.78;;;;;;;19.27;82.00;98041.85;1808450;79;20864;-60
2022/06/11 05:10:36;;;;;;;11.22;8.60;;;;;;;19.30;82.06;98041.17;1817556;79;20866;-63
2022/06/11 05:13:04;;;;;;;9.18;8.25;;;;;;;19.35;82.15;98043.64;1819102;79;21017;-61
2022/06/11 05:15:32;;;;;;;16.90;9.63;;;;;;;19.36;81.83;98049.34;1819156;79;20973;-59
2022/06/11 05:17:58;;;;;;;9.95;8.55;;;;;;;19.38;81.96;98052.50;1819238;79;21233;-61
2022/06/11 05:20:25;;;;;;;10.05;8.03;;;;;;;19.42;81.90;98050.66;1819044;79;20866;-62
2022/06/11 05:22:52;;;;;;;12.10;8.18;;;;;;;19.46;81.96;98052.90;1819136;79;20909;-60
2022/06/11 05:25:18;;;;;;;9.58;8.55;;;;;;;19.51;81.76;98052.09;1819119;79;20965;-59
2022/06/11 05:27:46;;;;;;;11.63;8.25;;;;;;;19.54;81.55;98051.97;1819313;79;20870;-63
2022/06/11 05:30:21;;;;;;;14.90;7.85;;;;;;;19.59;81.68;98054.44;1819280;79;21722;-64
2022/06/11 05:32:48;;;;;;;;;;;;;;;19.65;81.58;98052.48;1822034;79;20960;-63
2022/06/11 05:35:19;;;;;;;9.73;8.08;;;;;;;19.73;81.26;98057.54;1819301;79;20070;-62
2022/06/11 05:37:48;;;;;;;10.00;8.20;;;;;;;19.79;81.31;98056.13;1819261;79;20898;-64
2022/06/11 05:40:17;;;;;;;11.53;7.95;;;;;;;19.87;81.16;98059.27;1819274;79;20909;-61
2022/06/11 05:42:47;;;;;;;13.18;8.48;;;;;;;19.96;81.13;98062.61;1819565;79;21444;-60
2022/06/11 05:45:17;;;;;;;10.58;8.20;;;;;;;20.04;80.56;98060.30;1819221;79;20878;-63
2022/06/11 05:47:45;;;;;;;12.80;8.73;;;;;;;20.08;80.61;98061.17;1819289;79;20942;-61
2022/06/11 05:50:14;;;;;;;11.43;8.08;;;;;;;20.18;80.31;98069.38;1819256;79;20926;-63
2022/06/11 05:52:45;;;;;;;10.75;8.33;;;;;;;20.27;80.15;98069.46;1819274;79;20964;-62
2022/06/11 05:55:10;;;;;;;9.08;7.85;;;;;;;20.36;80.13;98074.15;1819022;78;21250;-62
2022/06/11 05:57:38;;;;;;;12.85;7.75;;;;;;;20.45;79.74;98072.03;1818999;78;21016;-60
2022/06/11 06:00:08;;;;;;;9.33;7.37;;;;;;;20.53;79.58;98077.08;1819335;79;20922;-63
2022/06/11 06:02:38;;;;;;;11.53;8.55;;;;;;;20.61;79.54;98081.53;1818874;78;20921;-63
2022/06/11 06:05:08;;;;;;;10.08;8.90;;;;;;;20.69;79.19;98083.84;1819457;79;21393;-60
2022/06/11 06:07:34;;;;;;;9.38;8.45;;;;;;;20.74;78.90;98080.86;1819379;79;21369;-59
2022/06/11 06:10:01;;;;;;;9.35;8.50;;;;;;;20.74;78.88;98081.66;1819083;79;20885;-63
2022/06/11 06:12:33;;;;;;;13.55;9.13;;;;;;;20.76;78.50;98078.57;1819242;79;20874;-62
2022/06/11 06:15:05;;;;;;;10.78;8.08;;;;;;;20.77;78.60;98077.44;1819340;79;21001;-59
2022/06/11 06:17:32;;;;;;;10.55;7.75;;;;;;;20.77;77.89;98075.52;1818232;79;21013;-62
2022/06/11 06:19:59;;;;;;;10.90;7.95;;;;;;;20.79;78.11;98076.51;1819294;79;21265;-61
2022/06/11 06:22:26;;;;;;;10.60;8.43;;;;;;;20.90;78.53;98084.34;1819257;79;20878;-60
2022/06/11 06:24:53;;;;;;;12.68;8.10;;;;;;;21.06;78.44;98079.66;1819222;79;20921;-64
2022/06/11 06:27:19;;;;;;;12.60;7.67;;;;;;;21.20;78.43;98079.20;1819220;79;20961;-62
2022/06/11 06:29:46;;;;;;;9.18;7.30;;;;;;;21.36;78.21;98082.05;1819244;79;20921;-65
2022/06/11 06:32:13;;;;;;;9.48;6.90;;;;;;;21.52;78.01;98088.24;1819226;79;21111;-64
2022/06/11 06:34:39;;;;;;;9.55;7.20;;;;;;;21.64;77.12;98082.64;1819266;79;20921;-63
2022/06/11 06:37:06;;;;;;;13.28;8.33;;;;;;;21.77;76.81;98088.71;1819389;79;20899;-64
2022/06/11 06:39:32;;;;;;;13.48;7.85;;;;;;;21.91;74.86;98096.39;1819202;79;20981;-63
2022/06/11 06:41:59;;;;;;;9.45;8.10;;;;;;;21.95;74.90;98087.72;1819320;79;21016;-63
2022/06/11 06:44:28;;;;;;;8.10;7.30;;;;;;;22.00;74.25;98089.56;1818860;78;21910;-64
2022/06/11 06:46:55;;;;;;;8.98;7.50;;;;;;;22.04;74.46;98088.27;1819263;79;20905;-60
2022/06/11 06:49:21;;;;;;;9.05;6.90;;;;;;;22.07;74.41;98096.50;1819191;79;20898;-61
2022/06/11 06:51:48;;;;;;;9.30;8.20;;;;;;;22.14;74.54;98097.23;1819197;79;20941;-60
2022/06/11 06:54:15;;;;;;;13.65;7.80;;;;;;;22.21;73.86;98101.45;1819323;79;20942;-62
2022/06/11 06:56:41;;;;;;;9.98;8.18;;;;;;;22.23;73.52;98090.95;1819216;79;21229;-60
2022/06/11 06:59:08;;;;;;;10.75;7.78;;;;;;;22.21;73.43;98090.53;1819121;79;20965;-64
2022/06/11 07:01:35;;;;;;;10.38;7.87;;;;;;;22.24;73.42;98087.06;1819281;79;20893;-62
2022/06/11 07:04:01;;;;;;;11.38;7.75;;;;;;;22.29;72.92;98094.94;1819299;79;20961;-60
2022/06/11 07:06:29;;;;;;;9.05;8.13;;;;;;;22.37;72.84;98093.36;1819204;79;21015;-63
2022/06/11 07:08:56;;;;;;;12.33;9.03;;;;;;;22.51;73.08;98099.61;1765704;79;21068;-62
2022/06/11 07:11:22;;;;;;;8.60;7.70;;;;;;;22.67;73.40;98103.02;1819194;79;20977;-62
2022/06/11 07:13:49;;;;;;;11.08;7.75;;;;;;;22.84;73.19;98103.87;1819295;79;20937;-63
2022/06/11 07:16:21;;;;;;;12.33;8.58;;;;;;;22.93;72.44;98104.97;1819180;79;20933;-64
2022/06/11 07:21:32;;;;;;;9.98;8.13;;;;;;;22.82;71.96;98118.45;1819265;79;21115;-59
2022/06/11 07:24:04;;;;;;;9.55;8.55;;;;;;;22.77;71.87;98118.78;1819142;79;20977;-63
2022/06/11 07:26:37;;;;;;;8.60;7.80;;;;;;;22.78;71.99;98123.64;1819680;79;20937;-62
2022/06/11 07:29:14;;;;;;;9.63;7.53;;;;;;;22.79;72.71;98117.84;1819432;79;21429;-59
2022/06/11 07:31:42;;;;;;;10.48;7.95;;;;;;;22.87;72.68;98119.50;1819445;79;21456;-63
2022/06/11 07:34:08;;;;;;;12.63;8.28;;;;;;;22.98;72.02;98121.84;1819185;79;21809;-60
2022/06/11 07:36:35;;;;;;;12.60;8.20;;;;;;;23.03;71.74;98131.05;1819109;79;20897;-58
2022/06/11 07:39:02;;;;;;;14.00;8.15;;;;;;;23.07;71.04;98128.39;1819189;79;20874;-61
2022/06/11 07:41:28;;;;;;;9.15;8.23;;;;;;;23.04;70.92;98130.48;1819225;79;21016;-59
2022/06/11 07:43:56;;;;;;;8.50;7.70;;;;;;;22.96;70.45;98129.58;1819190;79;21390;-59
2022/06/11 07:46:23;;;;;;;8.85;6.95;;;;;;;22.91;70.94;98129.92;1819258;79;21195;-59
2022/06/11 07:48:50;;;;;;;10.58;7.72;;;;;;;22.93;70.63;98126.25;1819072;79;20960;-62
2022/06/11 07:51:20;;;;;;;11.03;7.80;;;;;;;22.93;70.48;98126.25;1819465;79;21424;-60
2022/06/11 07:53:48;;;;;;;10.20;7.95;;;;;;;23.03;70.65;98123.46;1819349;79;21412;-60
2022/06/11 07:56:15;;;;;;;9.93;8.13;;;;;;;23.11;69.90;98123.19;1819295;79;20909;-64
2022/06/11 07:58:41;;;;;;;9.18;7.60;;;;;;;23.15;70.11;98129.48;1819340;79;21496;-59
2022/06/11 08:01:08;;;;;;;8.23;7.42;;;;;;;23.25;69.90;98123.19;1819056;79;20956;-62
2022/06/11 08:03:37;;;;;;;9.40;7.35;;;;;;;23.32;69.40;98127.39;1819129;79;20866;-60
2022/06/11 08:06:05;;;;;;;8.13;7.33;;;;;;;23.27;69.19;98129.06;1819216;79;20898;-59
2022/06/11 08:08:32;;;;;;;15.25;8.13;;;;;;;23.23;68.92;98129.58;1819171;79;20957;-60
2022/06/11 08:11:00;;;;;;;9.05;7.17;;;;;;;23.26;68.82;98126.91;1811908;79;21464;-62
2022/06/11 08:13:28;;;;;;;11.63;8.18;;;;;;;23.29;68.36;98121.28;1808579;79;20867;-63
2022/06/11 08:15:55;;;;;;;10.28;7.67;;;;;;;23.30;68.60;98128.31;1808688;79;20950;-63
2022/06/11 08:18:22;;;;;;;15.40;7.60;;;;;;;23.27;68.50;98127.70;1808530;79;21295;-63
2022/06/11 08:20:51;;;;;;;9.80;7.25;;;;;;;23.32;68.71;98128.75;1808651;79;21008;-60
2022/06/11 08:23:20;;;;;;;9.63;7.75;;;;;;;23.46;68.70;98146.73;1808561;79;22170;-62
2022/06/11 08:25:46;;;;;;;8.70;7.53;;;;;;;23.54;67.11;98138.82;1808864;79;20878;-62
2022/06/11 08:28:14;;;;;;;9.00;7.05;;;;;;;23.51;66.93;98128.05;1808667;79;20858;-63
2022/06/11 08:30:41;;;;;;;8.23;7.22;;;;;;;23.55;66.65;98133.57;1808618;79;21445;-63
2022/06/11 08:33:07;;;;;;;9.43;7.05;;;;;;;23.54;68.00;98138.82;1808692;79;20905;-58
2022/06/11 08:35:34;;;;;;;8.38;6.55;;;;;;;23.57;67.71;98140.82;1808549;79;21259;-59
2022/06/11 08:38:03;;;;;;;9.28;6.92;;;;;;;23.62;66.96;98133.05;1808599;79;20965;-59
2022/06/11 08:40:44;;;;;;;7.45;6.55;;;;;;;23.75;67.00;98134.98;1808656;79;20957;-62
2022/06/11 08:43:28;;;;;;;9.83;7.22;;;;;;;23.88;66.51;98132.22;1808642;79;20929;-62
2022/06/11 08:46:04;;;;;;;8.40;6.90;;;;;;;24.06;66.03;98130.48;1808602;79;20921;-64
2022/06/11 08:49:03;;;;;;;9.03;7.12;;;;;;;24.13;65.81;98159.29;1808745;79;21225;-64
2022/06/11 08:51:58;;;;;;;8.80;7.40;;;;;;;24.07;65.59;98129.91;1808772;79;21476;-59
2022/06/11 08:54:33;;;;;;;7.20;6.50;;;;;;;24.14;66.99;98135.45;1808677;79;20839;-64
2022/06/11 08:57:30;;;;;;;8.53;6.80;;;;;;;24.34;66.83;98145.02;1808536;79;20941;-64
2022/06/11 09:00:11;;;;;;;8.35;6.78;;;;;;;24.14;67.08;98138.19;1808768;79;21354;-61
2022/06/11 09:03:09;;;;;;;8.45;6.87;;;;;;;24.14;67.08;98138.19;1808821;79;21241;-62
2022/06/11 09:06:05;;;;;;;11.75;6.67;;;;;;;24.23;66.63;98142.20;1808765;79;20870;-57
2022/06/11 09:09:05;;;;;;;10.38;6.70;;;;;;;24.35;66.36;98141.90;1808727;79;20890;-62
2022/06/11 09:11:44;;;;;;;;;;;;;;;24.51;66.14;98139.52;1819925;79;20949;-65
2022/06/11 09:14:34;;;;;;;8.43;7.03;;;;;;;24.59;64.97;98146.03;1818349;78;20082;-61
2022/06/11 09:17:31;;;;;;;9.30;6.60;;;;;;;24.57;64.59;98147.57;1819392;79;21212;-62
2022/06/11 09:20:37;;;;;;;9.00;6.75;;;;;;;24.49;65.24;98147.51;1780435;78;21405;-59
2022/06/11 09:23:39;;;;;;;8.93;6.65;;;;;;;24.65;64.62;98150.59;1819490;79;26960;-65
2022/06/11 09:26:32;;;;;;;7.67;6.10;;;;;;;24.82;64.45;98144.50;1819364;79;20973;-61
2022/06/11 09:29:27;;;;;;;7.30;6.42;;;;;;;24.86;63.99;98150.21;1715942;83;21027;-63
2022/06/11 09:32:11;;;;;;;9.50;6.37;;;;;;;24.91;64.02;98147.70;1716324;83;21069;-61
2022/06/11 09:34:50;;;;;;;7.12;6.30;;;;;;;25.02;63.26;98138.97;1788775;79;21020;-64
2022/06/11 09:37:25;;;;;;;8.73;6.42;;;;;;;25.04;62.86;98134.68;1812616;79;20910;-62
2022/06/11 09:40:21;;;;;;;7.75;5.80;;;;;;;25.14;62.96;98140.03;1819264;79;20921;-60
2022/06/11 09:43:18;;;;;;;6.97;6.28;;;;;;;25.41;61.76;98144.13;1819429;79;20866;-62
2022/06/11 09:46:15;;;;;;;6.20;5.60;;;;;;;25.41;61.76;98144.13;1819508;79;21408;-62
2022/06/11 09:49:02;;;;;;;8.85;6.15;;;;;;;25.37;61.46;98145.24;1819306;79;20874;-60
2022/06/11 09:51:53;;;;;;;8.60;6.05;;;;;;;25.42;61.88;98140.77;1819385;79;20997;-60
2022/06/11 09:54:29;;;;;;;6.53;5.92;;;;;;;25.54;60.57;98139.89;1819247;79;20976;-63
2022/06/11 09:57:27;;;;;;;10.03;6.10;;;;;;;25.62;60.47;98142.88;1815710;78;21424;-61
2022/06/11 10:00:18;;;;;;;7.85;5.37;;;;;;;25.61;60.16;98140.50;1819239;79;21214;-62
2022/06/11 10:03:01;;;;;;;11.28;5.92;;;;;;;25.60;61.30;98135.59;1819114;78;20902;-62
2022/06/11 10:05:38;;;;;;;6.75;5.58;;;;;;;25.71;59.87;98138.40;1819257;79;20839;-59
2022/06/11 10:08:36;;;;;;;10.28;5.85;;;;;;;25.72;60.48;98134.47;1802357;79;20886;-61
2022/06/11 10:11:04;;;;;;;;;;;;;;;25.85;59.82;98132.17;1782114;78;20989;-63
2022/06/11 10:13:42;;;;;;;9.70;5.90;;;;;;;25.91;59.87;98141.63;1803378;79;20489;-60
2022/06/11 10:16:32;;;;;;;8.15;5.72;;;;;;;25.91;58.77;98137.50;1803218;79;21020;-64
2022/06/11 10:19:16;;;;;;;10.82;5.60;;;;;;;25.89;58.43;98146.10;1803639;79;21887;-63
2022/06/11 10:21:47;;;;;;;7.43;5.10;;;;;;;25.87;59.67;98130.62;1803484;79;20914;-61
2022/06/11 10:24:14;;;;;;;6.03;4.95;;;;;;;25.96;59.79;98144.75;1802819;79;21520;-59
2022/06/11 10:26:46;;;;;;;6.85;5.33;;;;;;;25.94;59.20;98136.70;1803359;79;21230;-64
2022/06/11 10:29:36;;;;;;;10.58;5.55;;;;;;;25.94;59.96;98133.97;1803195;79;20918;-61
2022/06/11 10:32:11;;;;;;;8.83;5.50;;;;;;;26.05;59.65;98118.34;1803386;79;20990;-63
2022/06/11 10:34:43;;;;;;;7.22;5.25;;;;;;;26.22;58.96;98134.06;1803718;79;20985;-60
2022/06/11 10:37:27;;;;;;;7.50;5.37;;;;;;;26.29;58.71;98132.13;1803269;79;21437;-59
2022/06/11 10:40:06;;;;;;;;;;;;;;;26.26;57.30;98130.15;1805959;79;21115;-63
2022/06/11 10:42:41;;;;;;;6.12;5.30;;;;;;;26.24;58.09;98130.34;1803189;79;20350;-63
2022/06/11 10:45:15;;;;;;;9.38;5.65;;;;;;;26.12;58.81;98130.73;1803685;79;20867;-62
2022/06/11 10:47:45;;;;;;;9.77;5.47;;;;;;;25.98;59.00;98130.66;1803493;79;21014;-61
2022/06/11 10:50:18;;;;;;;9.95;5.55;;;;;;;25.90;59.45;98135.92;1803289;79;20934;-64
2022/06/11 10:53:28;;;;;;;5.75;4.80;;;;;;;26.01;58.73;98140.27;1803261;79;21229;-63
2022/06/11 10:56:03;;;;;;;11.25;4.95;;;;;;;26.02;58.75;98139.69;1803310;79;20871;-64
2022/06/11 10:59:05;;;;;;;8.60;4.55;;;;;;;26.13;59.56;98135.82;1803249;79;21425;-63
2022/06/11 11:01:40;;;;;;;8.00;5.20;;;;;;;26.13;58.83;98130.91;1803288;79;21418;-64
2022/06/11 11:04:28;;;;;;;5.10;4.60;;;;;;;26.22;59.30;98138.19;1803470;79;21358;-63
2022/06/11 11:07:15;;;;;;;9.78;4.67;;;;;;;26.37;59.01;98130.18;1801821;79;20946;-60
2022/06/11 11:09:42;;;;;;;7.22;5.20;;;;;;;26.50;57.83;98124.48;1803174;79;20922;-65
2022/06/11 11:12:32;;;;;;;7.53;5.03;;;;;;;26.51;56.72;98120.58;1807530;78;21492;-59
2022/06/11 11:15:04;;;;;;;7.85;4.62;;;;;;;26.52;57.45;98126.25;1808593;79;20969;-62
2022/06/11 11:17:32;;;;;;;5.67;4.50;;;;;;;26.47;57.66;98123.92;1804385;79;20977;-60
2022/06/11 11:20:36;;;;;;;7.17;4.85;;;;;;;26.47;57.88;98120.56;1808605;79;21237;-61
2022/06/11 11:23:11;;;;;;;7.05;5.10;;;;;;;26.57;57.27;98123.12;1808525;79;20878;-61
2022/06/11 11:25:52;;;;;;;7.08;4.87;;;;;;;26.58;57.02;98117.05;1808901;79;20863;-60
2022/06/11 11:28:28;;;;;;;8.08;4.78;;;;;;;26.58;56.43;98115.09;1808587;79;20890;-64
2022/06/11 11:31:06;;;;;;;8.43;4.83;;;;;;;26.68;58.31;98119.80;1808613;79;20871;-63
2022/06/11 11:33:37;;;;;;;8.28;5.00;;;;;;;26.85;57.03;98121.01;1808713;79;21115;-63
2022/06/11 11:36:20;;;;;;;5.05;4.47;;;;;;;27.00;56.58;98111.55;1809055;79;21382;-60
2022/06/11 11:39:01;;;;;;;9.48;4.75;;;;;;;27.18;56.14;98111.53;1808591;79;20930;-59
2022/06/11 11:41:32;;;;;;;6.78;4.55;;;;;;;27.27;54.19;98120.14;1786328;79;21001;-63
2022/06/11 11:44:07;;;;;;;7.45;4.58;;;;;;;27.22;55.55;98113.67;1808874;79;21385;-62
2022/06/11 11:46:35;;;;;;;10.28;5.00;;;;;;;27.37;54.25;98105.59;1808590;79;21116;-63
2022/06/11 11:49:05;;;;;;;7.12;4.70;;;;;;;27.54;53.25;98102.00;1808511;79;20882;-62
2022/06/11 11:51:38;;;;;;;7.90;4.53;;;;;;;27.69;53.25;98102.94;1808580;79;20949;-61
2022/06/11 11:54:19;;;;;;;5.65;4.22;;;;;;;27.93;52.78;98101.83;1808587;79;20883;-62
2022/06/11 11:56:56;;;;;;;5.08;4.20;;;;;;;28.09;52.25;98106.28;1807950;79;36116;-60
2022/06/11 11:59:26;;;;;;;6.33;5.00;;;;;;;28.18;52.28;98106.61;1808585;79;22073;-58
2022/06/11 12:01:57;;;;;;;7.12;4.50;;;;;;;28.36;50.47;98097.05;1808462;79;20926;-61
2022/06/11 12:04:31;;;;;;;6.35;3.98;;;;;;;28.35;50.51;98099.62;1808879;79;21437;-59
2022/06/11 12:07:02;;;;;;;5.80;4.67;;;;;;;28.43;50.38;98091.48;1808869;79;20918;-61